ドバイ の空港の天気 - METARとTAF

ドバイ国際空港 ( OMDB / DXB ) - アラブ首長国連邦 ドバイ
飛行場実況気象(Metar)
観測時間04/27 20:00 +04 (04/27 16:00 UTC)
風向・風速北西 5m/s
視程10km以上
天気現象
なし
気温30℃
湿度66%
気圧1008hPa
METAROMDB 271600Z 31009KT CAVOK 30/23 Q1008 NOSIG
過去の天気等 Google飛行場航空写真 Wunderground天気予報

過去48時間のMETAR

飛行場予報(TAF)
発表時間: 4/27 14:53 +04 (4/27 10:53 UTC)
予報対象時間: 27日16時 +04 ~ 28日22時 +04
風向・風速西北西 6m/s
視程8,000m
なし
27日19時 +04 ~ 27日21時 +04 に徐々に
風向・風速南南東 3m/s
28日4時 +04 から 確率 30% で
視程3,000m
天気現象もや
28日11時 +04 ~ 28日13時 +04 に徐々に
風向・風速北北西 7m/s
28日19時 +04 ~ 28日21時 +04 に徐々に
風向・風速東 4m/s
TAF OMDB 271053Z 2712/2818 29012KT 8000 NSC
BECMG 2715/2717 15005KT
PROB30 2800/2805 3000 BR
BECMG 2807/2809 33014KT
BECMG 2815/2817 09007KT